sensor_id;sensor_type;location;lat;lon;timestamp;P1;durP1;ratioP1;P2;durP2;ratioP2
3004;SDS011;1512;51.486;6.610;2022-11-15T00:03:08;13.40;;;8.73;;
3004;SDS011;1512;51.486;6.610;2022-11-15T00:07:17;16.43;;;8.63;;
3004;SDS011;1512;51.486;6.610;2022-11-15T00:11:27;8.80;;;7.83;;
3004;SDS011;1512;51.486;6.610;2022-11-15T00:15:37;16.07;;;10.17;;
3004;SDS011;1512;51.486;6.610;2022-11-15T00:19:46;15.60;;;8.70;;
3004;SDS011;1512;51.486;6.610;2022-11-15T00:23:56;12.30;;;7.73;;
3004;SDS011;1512;51.486;6.610;2022-11-15T00:28:05;13.80;;;7.70;;
3004;SDS011;1512;51.486;6.610;2022-11-15T00:32:14;18.33;;;9.50;;
3004;SDS011;1512;51.486;6.610;2022-11-15T00:36:23;13.83;;;8.40;;
3004;SDS011;1512;51.486;6.610;2022-11-15T00:40:31;11.50;;;7.97;;
3004;SDS011;1512;51.486;6.610;2022-11-15T00:44:40;11.90;;;9.03;;
3004;SDS011;1512;51.486;6.610;2022-11-15T00:48:49;14.00;;;9.23;;
3004;SDS011;1512;51.486;6.610;2022-11-15T00:52:57;13.43;;;9.07;;
3004;SDS011;1512;51.486;6.610;2022-11-15T00:57:06;15.57;;;7.83;;
3004;SDS011;1512;51.486;6.610;2022-11-15T01:01:14;13.00;;;9.47;;
3004;SDS011;1512;51.486;6.610;2022-11-15T01:09:52;14.17;;;9.70;;
3004;SDS011;1512;51.486;6.610;2022-11-15T01:14:00;18.17;;;9.60;;
3004;SDS011;1512;51.486;6.610;2022-11-15T01:18:09;15.23;;;9.78;;
3004;SDS011;1512;51.486;6.610;2022-11-15T01:22:18;12.60;;;8.97;;
3004;SDS011;1512;51.486;6.610;2022-11-15T01:26:26;14.13;;;8.70;;
3004;SDS011;1512;51.486;6.610;2022-11-15T01:30:35;16.07;;;9.73;;
3004;SDS011;1512;51.486;6.610;2022-11-15T01:34:44;18.70;;;9.37;;
3004;SDS011;1512;51.486;6.610;2022-11-15T01:38:53;13.40;;;8.83;;
3004;SDS011;1512;51.486;6.610;2022-11-15T01:47:35;11.17;;;9.97;;
3004;SDS011;1512;51.486;6.610;2022-11-15T01:51:45;16.53;;;10.97;;
3004;SDS011;1512;51.486;6.610;2022-11-15T01:55:54;13.43;;;9.03;;
3004;SDS011;1512;51.486;6.610;2022-11-15T02:00:04;11.90;;;8.83;;
3004;SDS011;1512;51.486;6.610;2022-11-15T02:08:43;11.50;;;7.53;;
3004;SDS011;1512;51.486;6.610;2022-11-15T02:12:52;16.57;;;8.67;;
3004;SDS011;1512;51.486;6.610;2022-11-15T02:30:22;13.03;;;7.30;;
3004;SDS011;1512;51.486;6.610;2022-11-15T02:39:02;8.60;;;6.80;;
3004;SDS011;1512;51.486;6.610;2022-11-15T02:43:29;8.60;;;5.57;;
3004;SDS011;1512;51.486;6.610;2022-11-15T02:48:04;10.83;;;7.50;;
3004;SDS011;1512;51.486;6.610;2022-11-15T02:52:18;10.83;;;7.67;;
3004;SDS011;1512;51.486;6.610;2022-11-15T02:56:48;11.13;;;7.10;;
3004;SDS011;1512;51.486;6.610;2022-11-15T03:01:12;10.77;;;6.50;;
3004;SDS011;1512;51.486;6.610;2022-11-15T03:10:22;10.97;;;7.47;;
3004;SDS011;1512;51.486;6.610;2022-11-15T03:14:35;8.27;;;6.50;;
3004;SDS011;1512;51.486;6.610;2022-11-15T03:18:47;8.20;;;7.40;;
3004;SDS011;1512;51.486;6.610;2022-11-15T03:23:00;11.07;;;7.20;;
3004;SDS011;1512;51.486;6.610;2022-11-15T03:27:18;10.10;;;7.40;;
3004;SDS011;1512;51.486;6.610;2022-11-15T03:31:30;8.53;;;7.13;;
3004;SDS011;1512;51.486;6.610;2022-11-15T03:35:55;12.37;;;8.17;;
3004;SDS011;1512;51.486;6.610;2022-11-15T03:40:04;11.30;;;8.40;;
3004;SDS011;1512;51.486;6.610;2022-11-15T03:48:50;11.10;;;9.27;;
3004;SDS011;1512;51.486;6.610;2022-11-15T03:53:04;11.60;;;8.67;;
3004;SDS011;1512;51.486;6.610;2022-11-15T03:57:12;11.40;;;8.73;;
3004;SDS011;1512;51.486;6.610;2022-11-15T04:01:21;13.03;;;8.10;;
3004;SDS011;1512;51.486;6.610;2022-11-15T04:09:59;10.93;;;7.83;;
3004;SDS011;1512;51.486;6.610;2022-11-15T04:14:10;11.20;;;8.10;;
3004;SDS011;1512;51.486;6.610;2022-11-15T04:18:18;8.60;;;7.20;;
3004;SDS011;1512;51.486;6.610;2022-11-15T04:22:27;15.73;;;9.07;;
3004;SDS011;1512;51.486;6.610;2022-11-15T04:26:59;10.20;;;8.40;;
3004;SDS011;1512;51.486;6.610;2022-11-15T04:31:08;13.27;;;8.63;;
3004;SDS011;1512;51.486;6.610;2022-11-15T04:39:46;10.93;;;8.70;;
3004;SDS011;1512;51.486;6.610;2022-11-15T04:43:55;10.20;;;7.43;;
3004;SDS011;1512;51.486;6.610;2022-11-15T04:48:03;14.10;;;9.70;;
3004;SDS011;1512;51.486;6.610;2022-11-15T04:52:12;9.90;;;7.70;;
3004;SDS011;1512;51.486;6.610;2022-11-15T04:56:21;8.57;;;7.50;;
3004;SDS011;1512;51.486;6.610;2022-11-15T05:00:29;8.28;;;6.72;;
3004;SDS011;1512;51.486;6.610;2022-11-15T05:09:06;10.60;;;8.37;;
3004;SDS011;1512;51.486;6.610;2022-11-15T05:13:15;12.00;;;7.30;;
3004;SDS011;1512;51.486;6.610;2022-11-15T05:17:23;9.77;;;7.50;;
3004;SDS011;1512;51.486;6.610;2022-11-15T05:21:32;9.10;;;6.70;;
3004;SDS011;1512;51.486;6.610;2022-11-15T05:25:41;9.47;;;6.93;;
3004;SDS011;1512;51.486;6.610;2022-11-15T05:29:50;11.57;;;7.63;;
3004;SDS011;1512;51.486;6.610;2022-11-15T05:33:59;11.10;;;8.00;;
3004;SDS011;1512;51.486;6.610;2022-11-15T05:38:09;10.10;;;7.90;;
3004;SDS011;1512;51.486;6.610;2022-11-15T05:42:18;11.37;;;7.97;;
3004;SDS011;1512;51.486;6.610;2022-11-15T05:46:28;12.67;;;7.83;;
3004;SDS011;1512;51.486;6.610;2022-11-15T05:50:38;11.33;;;7.57;;
3004;SDS011;1512;51.486;6.610;2022-11-15T05:54:49;8.60;;;7.37;;
3004;SDS011;1512;51.486;6.610;2022-11-15T06:03:29;7.87;;;6.53;;
3004;SDS011;1512;51.486;6.610;2022-11-15T06:07:38;9.20;;;6.50;;
3004;SDS011;1512;51.486;6.610;2022-11-15T06:11:46;7.83;;;5.87;;
3004;SDS011;1512;51.486;6.610;2022-11-15T06:15:55;11.07;;;7.00;;
3004;SDS011;1512;51.486;6.610;2022-11-15T06:20:04;8.10;;;6.40;;
3004;SDS011;1512;51.486;6.610;2022-11-15T06:24:14;7.57;;;6.27;;
3004;SDS011;1512;51.486;6.610;2022-11-15T06:28:22;11.77;;;6.80;;
3004;SDS011;1512;51.486;6.610;2022-11-15T06:32:31;10.60;;;6.90;;
3004;SDS011;1512;51.486;6.610;2022-11-15T06:41:08;9.57;;;6.13;;
3004;SDS011;1512;51.486;6.610;2022-11-15T06:45:18;11.40;;;6.37;;
3004;SDS011;1512;51.486;6.610;2022-11-15T06:49:26;14.90;;;7.17;;
3004;SDS011;1512;51.486;6.610;2022-11-15T06:53:35;11.57;;;7.00;;
3004;SDS011;1512;51.486;6.610;2022-11-15T06:57:48;11.83;;;6.30;;
3004;SDS011;1512;51.486;6.610;2022-11-15T07:06:25;12.83;;;7.27;;
3004;SDS011;1512;51.486;6.610;2022-11-15T07:10:34;11.37;;;6.77;;
3004;SDS011;1512;51.486;6.610;2022-11-15T07:14:43;5.93;;;5.30;;
3004;SDS011;1512;51.486;6.610;2022-11-15T07:18:51;9.37;;;6.23;;
3004;SDS011;1512;51.486;6.610;2022-11-15T07:23:00;10.13;;;6.17;;
3004;SDS011;1512;51.486;6.610;2022-11-15T07:27:10;9.30;;;6.40;;
3004;SDS011;1512;51.486;6.610;2022-11-15T07:31:19;7.17;;;4.37;;
3004;SDS011;1512;51.486;6.610;2022-11-15T07:35:28;5.43;;;4.87;;
3004;SDS011;1512;51.486;6.610;2022-11-15T07:39:37;4.60;;;3.70;;
3004;SDS011;1512;51.486;6.610;2022-11-15T07:43:46;4.93;;;4.20;;
3004;SDS011;1512;51.486;6.610;2022-11-15T07:47:55;4.10;;;3.60;;
3004;SDS011;1512;51.486;6.610;2022-11-15T07:52:04;7.93;;;4.47;;
3004;SDS011;1512;51.486;6.610;2022-11-15T07:56:12;3.37;;;3.07;;
3004;SDS011;1512;51.486;6.610;2022-11-15T08:00:21;3.27;;;2.97;;
3004;SDS011;1512;51.486;6.610;2022-11-15T08:04:30;3.03;;;2.73;;
3004;SDS011;1512;51.486;6.610;2022-11-15T08:08:38;3.73;;;2.90;;
3004;SDS011;1512;51.486;6.610;2022-11-15T08:12:47;2.70;;;2.50;;
3004;SDS011;1512;51.486;6.610;2022-11-15T08:16:56;2.73;;;2.53;;
3004;SDS011;1512;51.486;6.610;2022-11-15T08:21:05;3.93;;;2.83;;
3004;SDS011;1512;51.486;6.610;2022-11-15T08:25:13;4.13;;;2.47;;
3004;SDS011;1512;51.486;6.610;2022-11-15T08:29:22;3.80;;;3.00;;
3004;SDS011;1512;51.486;6.610;2022-11-15T08:33:31;2.67;;;2.47;;
3004;SDS011;1512;51.486;6.610;2022-11-15T08:37:41;4.50;;;2.67;;
3004;SDS011;1512;51.486;6.610;2022-11-15T08:41:49;3.07;;;2.77;;
3004;SDS011;1512;51.486;6.610;2022-11-15T08:45:58;4.23;;;2.43;;
3004;SDS011;1512;51.486;6.610;2022-11-15T08:50:08;4.07;;;2.40;;
3004;SDS011;1512;51.486;6.610;2022-11-15T08:54:17;2.77;;;2.37;;
3004;SDS011;1512;51.486;6.610;2022-11-15T08:58:25;3.73;;;2.80;;
3004;SDS011;1512;51.486;6.610;2022-11-15T09:02:34;3.23;;;2.93;;
3004;SDS011;1512;51.486;6.610;2022-11-15T09:06:45;3.13;;;2.80;;
3004;SDS011;1512;51.486;6.610;2022-11-15T09:10:54;2.90;;;2.70;;
3004;SDS011;1512;51.486;6.610;2022-11-15T09:15:03;3.03;;;2.50;;
3004;SDS011;1512;51.486;6.610;2022-11-15T09:19:13;4.97;;;3.00;;
3004;SDS011;1512;51.486;6.610;2022-11-15T09:23:22;2.93;;;2.73;;
3004;SDS011;1512;51.486;6.610;2022-11-15T09:27:31;2.80;;;2.60;;
3004;SDS011;1512;51.486;6.610;2022-11-15T09:31:40;3.23;;;2.83;;
3004;SDS011;1512;51.486;6.610;2022-11-15T09:35:48;2.77;;;2.57;;
3004;SDS011;1512;51.486;6.610;2022-11-15T09:39:57;3.27;;;2.97;;
3004;SDS011;1512;51.486;6.610;2022-11-15T09:48:44;2.37;;;2.17;;
3004;SDS011;1512;51.486;6.610;2022-11-15T09:53:04;3.40;;;2.60;;
3004;SDS011;1512;51.486;6.610;2022-11-15T09:57:15;3.60;;;2.40;;
3004;SDS011;1512;51.486;6.610;2022-11-15T10:06:04;3.10;;;2.67;;
3004;SDS011;1512;51.486;6.610;2022-11-15T10:14:29;2.50;;;2.17;;
3004;SDS011;1512;51.486;6.610;2022-11-15T10:22:59;3.27;;;2.93;;
3004;SDS011;1512;51.486;6.610;2022-11-15T10:27:13;4.33;;;3.20;;
3004;SDS011;1512;51.486;6.610;2022-11-15T10:31:26;3.30;;;2.90;;
3004;SDS011;1512;51.486;6.610;2022-11-15T10:35:36;3.93;;;3.53;;
3004;SDS011;1512;51.486;6.610;2022-11-15T10:39:44;3.47;;;3.17;;
3004;SDS011;1512;51.486;6.610;2022-11-15T10:44:11;4.13;;;3.60;;
3004;SDS011;1512;51.486;6.610;2022-11-15T10:48:21;3.10;;;2.80;;
3004;SDS011;1512;51.486;6.610;2022-11-15T10:52:31;4.00;;;3.00;;
3004;SDS011;1512;51.486;6.610;2022-11-15T10:56:42;2.73;;;2.53;;
3004;SDS011;1512;51.486;6.610;2022-11-15T11:05:36;3.83;;;3.53;;
3004;SDS011;1512;51.486;6.610;2022-11-15T11:09:48;6.10;;;5.10;;
3004;SDS011;1512;51.486;6.610;2022-11-15T11:14:07;4.10;;;3.60;;
3004;SDS011;1512;51.486;6.610;2022-11-15T11:22:42;3.20;;;2.80;;
3004;SDS011;1512;51.486;6.610;2022-11-15T11:35:37;3.50;;;2.80;;
3004;SDS011;1512;51.486;6.610;2022-11-15T11:48:45;5.37;;;3.00;;
3004;SDS011;1512;51.486;6.610;2022-11-15T11:57:39;2.87;;;2.57;;
3004;SDS011;1512;51.486;6.610;2022-11-15T12:02:09;2.53;;;2.30;;
3004;SDS011;1512;51.486;6.610;2022-11-15T12:11:07;3.10;;;2.80;;
3004;SDS011;1512;51.486;6.610;2022-11-15T12:15:20;3.83;;;2.80;;
3004;SDS011;1512;51.486;6.610;2022-11-15T12:19:46;5.83;;;2.93;;
3004;SDS011;1512;51.486;6.610;2022-11-15T12:24:06;3.50;;;2.67;;
3004;SDS011;1512;51.486;6.610;2022-11-15T12:32:47;2.87;;;2.40;;
3004;SDS011;1512;51.486;6.610;2022-11-15T12:41:42;3.50;;;3.20;;
3004;SDS011;1512;51.486;6.610;2022-11-15T12:45:52;2.57;;;2.37;;
3004;SDS011;1512;51.486;6.610;2022-11-15T12:50:00;2.23;;;2.00;;
3004;SDS011;1512;51.486;6.610;2022-11-15T12:58:42;3.10;;;2.23;;
3004;SDS011;1512;51.486;6.610;2022-11-15T13:03:12;3.60;;;2.10;;
3004;SDS011;1512;51.486;6.610;2022-11-15T13:11:51;3.00;;;2.40;;
3004;SDS011;1512;51.486;6.610;2022-11-15T13:16:00;3.20;;;2.20;;
3004;SDS011;1512;51.486;6.610;2022-11-15T13:24:24;2.57;;;2.37;;
3004;SDS011;1512;51.486;6.610;2022-11-15T13:28:36;3.60;;;2.10;;
3004;SDS011;1512;51.486;6.610;2022-11-15T13:33:05;1.93;;;1.80;;
3004;SDS011;1512;51.486;6.610;2022-11-15T13:41:33;4.40;;;2.37;;
3004;SDS011;1512;51.486;6.610;2022-11-15T13:45:43;2.57;;;2.00;;
3004;SDS011;1512;51.486;6.610;2022-11-15T13:49:52;3.70;;;2.00;;
3004;SDS011;1512;51.486;6.610;2022-11-15T13:58:43;2.70;;;1.80;;
3004;SDS011;1512;51.486;6.610;2022-11-15T14:02:52;7.87;;;2.40;;
3004;SDS011;1512;51.486;6.610;2022-11-15T14:11:48;2.30;;;2.10;;
3004;SDS011;1512;51.486;6.610;2022-11-15T14:20:32;3.13;;;2.37;;
3004;SDS011;1512;51.486;6.610;2022-11-15T14:24:50;2.72;;;2.37;;
3004;SDS011;1512;51.486;6.610;2022-11-15T14:28:54;2.20;;;1.97;;
3004;SDS011;1512;51.486;6.610;2022-11-15T14:37:42;2.70;;;2.43;;
3004;SDS011;1512;51.486;6.610;2022-11-15T14:41:53;2.63;;;2.43;;
3004;SDS011;1512;51.486;6.610;2022-11-15T14:46:02;3.40;;;2.60;;
3004;SDS011;1512;51.486;6.610;2022-11-15T14:50:14;2.40;;;2.20;;
3004;SDS011;1512;51.486;6.610;2022-11-15T14:54:24;2.67;;;2.43;;
3004;SDS011;1512;51.486;6.610;2022-11-15T15:03:02;2.60;;;2.40;;
3004;SDS011;1512;51.486;6.610;2022-11-15T15:07:12;3.87;;;2.23;;
3004;SDS011;1512;51.486;6.610;2022-11-15T15:11:25;3.03;;;2.10;;
3004;SDS011;1512;51.486;6.610;2022-11-15T15:15:36;3.47;;;2.50;;
3004;SDS011;1512;51.486;6.610;2022-11-15T15:24:14;5.33;;;2.50;;
3004;SDS011;1512;51.486;6.610;2022-11-15T15:28:23;2.60;;;2.40;;
3004;SDS011;1512;51.486;6.610;2022-11-15T15:32:33;3.40;;;2.98;;
3004;SDS011;1512;51.486;6.610;2022-11-15T15:36:42;2.60;;;2.40;;
3004;SDS011;1512;51.486;6.610;2022-11-15T15:40:51;6.00;;;3.40;;
3004;SDS011;1512;51.486;6.610;2022-11-15T15:44:59;5.10;;;3.07;;
3004;SDS011;1512;51.486;6.610;2022-11-15T15:49:09;3.00;;;2.70;;
3004;SDS011;1512;51.486;6.610;2022-11-15T15:53:18;4.07;;;3.23;;
3004;SDS011;1512;51.486;6.610;2022-11-15T15:57:26;3.80;;;3.40;;
3004;SDS011;1512;51.486;6.610;2022-11-15T16:01:35;5.90;;;3.00;;
3004;SDS011;1512;51.486;6.610;2022-11-15T16:05:44;4.83;;;3.23;;
3004;SDS011;1512;51.486;6.610;2022-11-15T16:09:53;7.50;;;4.23;;
3004;SDS011;1512;51.486;6.610;2022-11-15T16:14:08;4.43;;;3.63;;
3004;SDS011;1512;51.486;6.610;2022-11-15T16:18:17;4.10;;;3.70;;
3004;SDS011;1512;51.486;6.610;2022-11-15T16:22:26;4.50;;;3.83;;
3004;SDS011;1512;51.486;6.610;2022-11-15T16:26:36;5.40;;;3.23;;
3004;SDS011;1512;51.486;6.610;2022-11-15T16:30:45;3.87;;;3.50;;
3004;SDS011;1512;51.486;6.610;2022-11-15T16:34:57;3.53;;;3.20;;
3004;SDS011;1512;51.486;6.610;2022-11-15T16:39:08;4.10;;;3.70;;
3004;SDS011;1512;51.486;6.610;2022-11-15T16:43:24;4.23;;;3.73;;
3004;SDS011;1512;51.486;6.610;2022-11-15T16:47:34;4.00;;;3.50;;
3004;SDS011;1512;51.486;6.610;2022-11-15T16:51:48;3.37;;;2.90;;
3004;SDS011;1512;51.486;6.610;2022-11-15T16:55:54;3.47;;;3.20;;
3004;SDS011;1512;51.486;6.610;2022-11-15T17:00:04;4.20;;;3.53;;
3004;SDS011;1512;51.486;6.610;2022-11-15T17:04:13;4.10;;;2.90;;
3004;SDS011;1512;51.486;6.610;2022-11-15T17:08:23;3.10;;;2.67;;
3004;SDS011;1512;51.486;6.610;2022-11-15T17:12:35;3.90;;;3.00;;
3004;SDS011;1512;51.486;6.610;2022-11-15T17:16:43;6.03;;;3.20;;
3004;SDS011;1512;51.486;6.610;2022-11-15T17:20:52;3.07;;;2.40;;
3004;SDS011;1512;51.486;6.610;2022-11-15T17:25:02;3.50;;;2.90;;
3004;SDS011;1512;51.486;6.610;2022-11-15T17:29:11;3.33;;;2.70;;
3004;SDS011;1512;51.486;6.610;2022-11-15T17:33:19;5.17;;;3.12;;
3004;SDS011;1512;51.486;6.610;2022-11-15T17:37:28;4.13;;;3.77;;
3004;SDS011;1512;51.486;6.610;2022-11-15T17:41:37;3.07;;;2.63;;
3004;SDS011;1512;51.486;6.610;2022-11-15T17:45:45;4.33;;;3.53;;
3004;SDS011;1512;51.486;6.610;2022-11-15T17:49:54;3.40;;;2.93;;
3004;SDS011;1512;51.486;6.610;2022-11-15T17:54:03;2.80;;;2.60;;
3004;SDS011;1512;51.486;6.610;2022-11-15T17:58:12;2.90;;;2.70;;
3004;SDS011;1512;51.486;6.610;2022-11-15T18:06:50;4.37;;;3.17;;
3004;SDS011;1512;51.486;6.610;2022-11-15T18:11:05;3.60;;;3.30;;
3004;SDS011;1512;51.486;6.610;2022-11-15T18:15:16;3.10;;;2.80;;
3004;SDS011;1512;51.486;6.610;2022-11-15T18:19:26;5.40;;;3.00;;
3004;SDS011;1512;51.486;6.610;2022-11-15T18:23:35;4.10;;;3.57;;
3004;SDS011;1512;51.486;6.610;2022-11-15T18:27:43;3.93;;;3.53;;
3004;SDS011;1512;51.486;6.610;2022-11-15T18:31:52;3.57;;;3.27;;
3004;SDS011;1512;51.486;6.610;2022-11-15T18:36:03;3.47;;;3.17;;
3004;SDS011;1512;51.486;6.610;2022-11-15T18:40:13;4.07;;;3.47;;
3004;SDS011;1512;51.486;6.610;2022-11-15T18:44:22;4.03;;;3.73;;
3004;SDS011;1512;51.486;6.610;2022-11-15T18:48:31;5.80;;;3.90;;
3004;SDS011;1512;51.486;6.610;2022-11-15T18:52:41;6.40;;;3.47;;
3004;SDS011;1512;51.486;6.610;2022-11-15T18:56:50;4.97;;;3.83;;
3004;SDS011;1512;51.486;6.610;2022-11-15T19:01:02;7.73;;;4.70;;
3004;SDS011;1512;51.486;6.610;2022-11-15T19:05:12;4.70;;;4.30;;
3004;SDS011;1512;51.486;6.610;2022-11-15T19:09:23;4.50;;;3.70;;
3004;SDS011;1512;51.486;6.610;2022-11-15T19:13:33;6.73;;;4.80;;
3004;SDS011;1512;51.486;6.610;2022-11-15T19:17:42;6.70;;;4.80;;
3004;SDS011;1512;51.486;6.610;2022-11-15T19:21:51;4.03;;;3.63;;
3004;SDS011;1512;51.486;6.610;2022-11-15T19:26:01;5.00;;;4.50;;
3004;SDS011;1512;51.486;6.610;2022-11-15T19:30:11;6.67;;;4.33;;
3004;SDS011;1512;51.486;6.610;2022-11-15T19:34:20;5.97;;;4.55;;
3004;SDS011;1512;51.486;6.610;2022-11-15T19:38:31;6.70;;;5.00;;
3004;SDS011;1512;51.486;6.610;2022-11-15T19:42:41;4.90;;;4.40;;
3004;SDS011;1512;51.486;6.610;2022-11-15T19:46:50;7.57;;;4.60;;
3004;SDS011;1512;51.486;6.610;2022-11-15T19:51:00;4.70;;;4.23;;
3004;SDS011;1512;51.486;6.610;2022-11-15T19:59:37;4.90;;;4.50;;
3004;SDS011;1512;51.486;6.610;2022-11-15T20:03:47;7.33;;;4.60;;
3004;SDS011;1512;51.486;6.610;2022-11-15T20:07:56;6.77;;;4.87;;
3004;SDS011;1512;51.486;6.610;2022-11-15T20:12:05;5.87;;;4.50;;
3004;SDS011;1512;51.486;6.610;2022-11-15T20:16:15;5.90;;;4.53;;
3004;SDS011;1512;51.486;6.610;2022-11-15T20:29:21;5.70;;;4.33;;
3004;SDS011;1512;51.486;6.610;2022-11-15T20:33:30;6.57;;;5.87;;
3004;SDS011;1512;51.486;6.610;2022-11-15T20:37:39;5.80;;;5.10;;
3004;SDS011;1512;51.486;6.610;2022-11-15T20:41:47;17.10;;;5.60;;
3004;SDS011;1512;51.486;6.610;2022-11-15T20:45:56;7.37;;;5.07;;
3004;SDS011;1512;51.486;6.610;2022-11-15T20:50:05;5.67;;;5.17;;
3004;SDS011;1512;51.486;6.610;2022-11-15T20:54:16;6.83;;;5.30;;
3004;SDS011;1512;51.486;6.610;2022-11-15T20:58:25;5.30;;;4.83;;
3004;SDS011;1512;51.486;6.610;2022-11-15T21:02:35;8.23;;;4.60;;
3004;SDS011;1512;51.486;6.610;2022-11-15T21:06:44;7.37;;;5.70;;
3004;SDS011;1512;51.486;6.610;2022-11-15T21:10:54;6.40;;;5.80;;
3004;SDS011;1512;51.486;6.610;2022-11-15T21:15:21;6.67;;;5.10;;
3004;SDS011;1512;51.486;6.610;2022-11-15T21:19:29;6.30;;;4.53;;
3004;SDS011;1512;51.486;6.610;2022-11-15T21:23:40;6.57;;;5.67;;
3004;SDS011;1512;51.486;6.610;2022-11-15T21:27:48;7.58;;;5.25;;
3004;SDS011;1512;51.486;6.610;2022-11-15T21:31:57;6.43;;;4.93;;
3004;SDS011;1512;51.486;6.610;2022-11-15T21:36:07;6.47;;;5.67;;
3004;SDS011;1512;51.486;6.610;2022-11-15T21:40:16;12.83;;;5.90;;
3004;SDS011;1512;51.486;6.610;2022-11-15T21:44:25;6.47;;;5.23;;
3004;SDS011;1512;51.486;6.610;2022-11-15T21:48:34;6.23;;;4.70;;
3004;SDS011;1512;51.486;6.610;2022-11-15T21:57:12;5.20;;;4.70;;
3004;SDS011;1512;51.486;6.610;2022-11-15T22:01:21;4.80;;;4.40;;
3004;SDS011;1512;51.486;6.610;2022-11-15T22:05:49;7.70;;;6.13;;
3004;SDS011;1512;51.486;6.610;2022-11-15T22:09:57;5.37;;;4.83;;
3004;SDS011;1512;51.486;6.610;2022-11-15T22:14:08;5.43;;;4.90;;
3004;SDS011;1512;51.486;6.610;2022-11-15T22:18:16;5.83;;;5.13;;
3004;SDS011;1512;51.486;6.610;2022-11-15T22:22:27;8.40;;;5.80;;
3004;SDS011;1512;51.486;6.610;2022-11-15T22:26:36;6.63;;;5.77;;
3004;SDS011;1512;51.486;6.610;2022-11-15T22:30:46;8.47;;;5.40;;
3004;SDS011;1512;51.486;6.610;2022-11-15T22:34:56;7.70;;;5.57;;
3004;SDS011;1512;51.486;6.610;2022-11-15T22:39:05;7.60;;;5.73;;
3004;SDS011;1512;51.486;6.610;2022-11-15T22:47:42;5.90;;;5.30;;
3004;SDS011;1512;51.486;6.610;2022-11-15T22:51:50;6.17;;;5.20;;
3004;SDS011;1512;51.486;6.610;2022-11-15T22:56:00;12.10;;;5.53;;
3004;SDS011;1512;51.486;6.610;2022-11-15T23:00:16;9.10;;;5.53;;
3004;SDS011;1512;51.486;6.610;2022-11-15T23:04:21;5.67;;;5.07;;
3004;SDS011;1512;51.486;6.610;2022-11-15T23:08:30;8.57;;;4.97;;
3004;SDS011;1512;51.486;6.610;2022-11-15T23:17:23;7.60;;;5.50;;
3004;SDS011;1512;51.486;6.610;2022-11-15T23:21:34;4.77;;;4.27;;
3004;SDS011;1512;51.486;6.610;2022-11-15T23:26:02;4.90;;;4.20;;
3004;SDS011;1512;51.486;6.610;2022-11-15T23:30:11;4.83;;;4.00;;
3004;SDS011;1512;51.486;6.610;2022-11-15T23:34:39;6.40;;;4.63;;
3004;SDS011;1512;51.486;6.610;2022-11-15T23:43:20;4.80;;;4.30;;
3004;SDS011;1512;51.486;6.610;2022-11-15T23:47:30;5.47;;;4.50;;
3004;SDS011;1512;51.486;6.610;2022-11-15T23:51:38;4.65;;;4.05;;
3004;SDS011;1512;51.486;6.610;2022-11-15T23:55:54;5.20;;;4.70;;
